<?xml version="1.0" encoding="UTF-8" standalone="no" ?>
<gpx xmlns="http://www.topografix.com/GPX/1/1" xmlns:xsi="http://www.w3.org/2001/XMLSchema-instance" xsi:schemaLocation="http://www.topografix.com/GPX/1/1 http://www.topografix.com/GPX/1/1/gpx.xsd" version="1.1" creator="VisuGPX - https://www.visugpx.com">
  <metadata>
    <name>Kaiserstuhlrunde ohne Totenkopf on AllTrails</name>
  </metadata>
  <trk>
    <name><![CDATA[Kaiserstuhlrunde ohne Totenkopf on AllTrails]]></name>
    <trkseg>
      <trkpt lat="48.10107" lon="7.67315">
        <ele>287</ele>
        <time>2010-01-01T00:00:00Z</time>
      </trkpt>
      <trkpt lat="48.10107" lon="7.67317">
        <ele>287</ele>
        <time>2010-01-01T00:00:00Z</time>
      </trkpt>
      <trkpt lat="48.1011" lon="7.67314">
        <ele>288</ele>
        <time>2010-01-01T00:00:02Z</time>
      </trkpt>
      <trkpt lat="48.10148" lon="7.67261">
        <ele>296</ele>
        <time>2010-01-01T00:00:22Z</time>
      </trkpt>
      <trkpt lat="48.10147" lon="7.6725">
        <ele>294</ele>
        <time>2010-01-01T00:00:26Z</time>
      </trkpt>
      <trkpt lat="48.10148" lon="7.67235">
        <ele>294</ele>
        <time>2010-01-01T00:00:30Z</time>
      </trkpt>
      <trkpt lat="48.1017" lon="7.67192">
        <ele>297</ele>
        <time>2010-01-01T00:00:44Z</time>
      </trkpt>
      <trkpt lat="48.1018" lon="7.67163">
        <ele>299</ele>
        <time>2010-01-01T00:00:53Z</time>
      </trkpt>
      <trkpt lat="48.10187" lon="7.67149">
        <ele>302</ele>
        <time>2010-01-01T00:00:58Z</time>
      </trkpt>
      <trkpt lat="48.10202" lon="7.67131">
        <ele>308</ele>
        <time>2010-01-01T00:01:05Z</time>
      </trkpt>
      <trkpt lat="48.10207" lon="7.6713">
        <ele>310</ele>
        <time>2010-01-01T00:01:07Z</time>
      </trkpt>
      <trkpt lat="48.10217" lon="7.6713">
        <ele>313</ele>
        <time>2010-01-01T00:01:11Z</time>
      </trkpt>
      <trkpt lat="48.1022" lon="7.67127">
        <ele>315</ele>
        <time>2010-01-01T00:01:13Z</time>
      </trkpt>
      <trkpt lat="48.10246" lon="7.67126">
        <ele>324</ele>
        <time>2010-01-01T00:01:23Z</time>
      </trkpt>
      <trkpt lat="48.10251" lon="7.67124">
        <ele>327</ele>
        <time>2010-01-01T00:01:25Z</time>
      </trkpt>
      <trkpt lat="48.10253" lon="7.67115">
        <ele>331</ele>
        <time>2010-01-01T00:01:27Z</time>
      </trkpt>
      <trkpt lat="48.10252" lon="7.67111">
        <ele>332</ele>
        <time>2010-01-01T00:01:29Z</time>
      </trkpt>
      <trkpt lat="48.10249" lon="7.67107">
        <ele>333</ele>
        <time>2010-01-01T00:01:30Z</time>
      </trkpt>
      <trkpt lat="48.1023" lon="7.67093">
        <ele>332</ele>
        <time>2010-01-01T00:01:39Z</time>
      </trkpt>
      <trkpt lat="48.1018" lon="7.67064">
        <ele>335</ele>
        <time>2010-01-01T00:02:00Z</time>
      </trkpt>
      <trkpt lat="48.10156" lon="7.67053">
        <ele>337</ele>
        <time>2010-01-01T00:02:10Z</time>
      </trkpt>
      <trkpt lat="48.10151" lon="7.67049">
        <ele>337</ele>
        <time>2010-01-01T00:02:13Z</time>
      </trkpt>
      <trkpt lat="48.10141" lon="7.67038">
        <ele>337</ele>
        <time>2010-01-01T00:02:18Z</time>
      </trkpt>
      <trkpt lat="48.1013" lon="7.67019">
        <ele>335</ele>
        <time>2010-01-01T00:02:24Z</time>
      </trkpt>
      <trkpt lat="48.10124" lon="7.67002">
        <ele>335</ele>
        <time>2010-01-01T00:02:30Z</time>
      </trkpt>
      <trkpt lat="48.10124" lon="7.66992">
        <ele>335</ele>
        <time>2010-01-01T00:02:32Z</time>
      </trkpt>
      <trkpt lat="48.1012" lon="7.66989">
        <ele>333</ele>
        <time>2010-01-01T00:02:34Z</time>
      </trkpt>
      <trkpt lat="48.10118" lon="7.66981">
        <ele>333</ele>
        <time>2010-01-01T00:02:36Z</time>
      </trkpt>
      <trkpt lat="48.10117" lon="7.66959">
        <ele>331</ele>
        <time>2010-01-01T00:02:42Z</time>
      </trkpt>
      <trkpt lat="48.10123" lon="7.66947">
        <ele>332</ele>
        <time>2010-01-01T00:02:46Z</time>
      </trkpt>
      <trkpt lat="48.10128" lon="7.66945">
        <ele>333</ele>
        <time>2010-01-01T00:02:48Z</time>
      </trkpt>
      <trkpt lat="48.10158" lon="7.66941">
        <ele>337</ele>
        <time>2010-01-01T00:03:00Z</time>
      </trkpt>
      <trkpt lat="48.10161" lon="7.66938">
        <ele>337</ele>
        <time>2010-01-01T00:03:02Z</time>
      </trkpt>
      <trkpt lat="48.10162" lon="7.66932">
        <ele>335</ele>
        <time>2010-01-01T00:03:03Z</time>
      </trkpt>
      <trkpt lat="48.1016" lon="7.66927">
        <ele>334</ele>
        <time>2010-01-01T00:03:05Z</time>
      </trkpt>
      <trkpt lat="48.1018" lon="7.66939">
        <ele>338</ele>
        <time>2010-01-01T00:03:13Z</time>
      </trkpt>
      <trkpt lat="48.10227" lon="7.66949">
        <ele>344</ele>
        <time>2010-01-01T00:03:32Z</time>
      </trkpt>
      <trkpt lat="48.10263" lon="7.66963">
        <ele>347</ele>
        <time>2010-01-01T00:03:47Z</time>
      </trkpt>
      <trkpt lat="48.10281" lon="7.66959">
        <ele>345</ele>
        <time>2010-01-01T00:03:54Z</time>
      </trkpt>
      <trkpt lat="48.10321" lon="7.66963">
        <ele>350</ele>
        <time>2010-01-01T00:04:10Z</time>
      </trkpt>
      <trkpt lat="48.10363" lon="7.6697">
        <ele>352</ele>
        <time>2010-01-01T00:04:27Z</time>
      </trkpt>
      <trkpt lat="48.10411" lon="7.66984">
        <ele>352</ele>
        <time>2010-01-01T00:04:47Z</time>
      </trkpt>
      <trkpt lat="48.1044" lon="7.66995">
        <ele>357</ele>
        <time>2010-01-01T00:04:59Z</time>
      </trkpt>
      <trkpt lat="48.10452" lon="7.67003">
        <ele>361</ele>
        <time>2010-01-01T00:05:04Z</time>
      </trkpt>
      <trkpt lat="48.10461" lon="7.67002">
        <ele>363</ele>
        <time>2010-01-01T00:05:07Z</time>
      </trkpt>
      <trkpt lat="48.10473" lon="7.66996">
        <ele>363</ele>
        <time>2010-01-01T00:05:13Z</time>
      </trkpt>
      <trkpt lat="48.10503" lon="7.66991">
        <ele>365</ele>
        <time>2010-01-01T00:05:25Z</time>
      </trkpt>
      <trkpt lat="48.10517" lon="7.67001">
        <ele>369</ele>
        <time>2010-01-01T00:05:31Z</time>
      </trkpt>
      <trkpt lat="48.10554" lon="7.67013">
        <ele>377</ele>
        <time>2010-01-01T00:05:46Z</time>
      </trkpt>
      <trkpt lat="48.10572" lon="7.67011">
        <ele>380</ele>
        <time>2010-01-01T00:05:53Z</time>
      </trkpt>
      <trkpt lat="48.10588" lon="7.66995">
        <ele>380</ele>
        <time>2010-01-01T00:06:01Z</time>
      </trkpt>
      <trkpt lat="48.10601" lon="7.6697">
        <ele>381</ele>
        <time>2010-01-01T00:06:10Z</time>
      </trkpt>
      <trkpt lat="48.10605" lon="7.66965">
        <ele>382</ele>
        <time>2010-01-01T00:06:12Z</time>
      </trkpt>
      <trkpt lat="48.10609" lon="7.66973">
        <ele>384</ele>
        <time>2010-01-01T00:06:14Z</time>
      </trkpt>
      <trkpt lat="48.10621" lon="7.66969">
        <ele>386</ele>
        <time>2010-01-01T00:06:19Z</time>
      </trkpt>
      <trkpt lat="48.10641" lon="7.66965">
        <ele>388</ele>
        <time>2010-01-01T00:06:27Z</time>
      </trkpt>
      <trkpt lat="48.10759" lon="7.67036">
        <ele>397</ele>
        <time>2010-01-01T00:07:18Z</time>
      </trkpt>
      <trkpt lat="48.10783" lon="7.67053">
        <ele>399</ele>
        <time>2010-01-01T00:07:29Z</time>
      </trkpt>
      <trkpt lat="48.1081" lon="7.67081">
        <ele>400</ele>
        <time>2010-01-01T00:07:42Z</time>
      </trkpt>
      <trkpt lat="48.10866" lon="7.67112">
        <ele>403</ele>
        <time>2010-01-01T00:08:06Z</time>
      </trkpt>
      <trkpt lat="48.10885" lon="7.67129">
        <ele>406</ele>
        <time>2010-01-01T00:08:15Z</time>
      </trkpt>
      <trkpt lat="48.1091" lon="7.67154">
        <ele>408</ele>
        <time>2010-01-01T00:08:27Z</time>
      </trkpt>
      <trkpt lat="48.1092" lon="7.67162">
        <ele>408</ele>
        <time>2010-01-01T00:08:31Z</time>
      </trkpt>
      <trkpt lat="48.10932" lon="7.67167">
        <ele>408</ele>
        <time>2010-01-01T00:08:36Z</time>
      </trkpt>
      <trkpt lat="48.10947" lon="7.67161">
        <ele>405</ele>
        <time>2010-01-01T00:08:42Z</time>
      </trkpt>
      <trkpt lat="48.1094" lon="7.67154">
        <ele>403</ele>
        <time>2010-01-01T00:08:46Z</time>
      </trkpt>
      <trkpt lat="48.10947" lon="7.67161">
        <ele>405</ele>
        <time>2010-01-01T00:08:49Z</time>
      </trkpt>
      <trkpt lat="48.10962" lon="7.67128">
        <ele>397</ele>
        <time>2010-01-01T00:09:00Z</time>
      </trkpt>
      <trkpt lat="48.10978" lon="7.67127">
        <ele>400</ele>
        <time>2010-01-01T00:09:07Z</time>
      </trkpt>
      <trkpt lat="48.11007" lon="7.67144">
        <ele>408</ele>
        <time>2010-01-01T00:09:19Z</time>
      </trkpt>
      <trkpt lat="48.11033" lon="7.67152">
        <ele>412</ele>
        <time>2010-01-01T00:09:29Z</time>
      </trkpt>
      <trkpt lat="48.11058" lon="7.67156">
        <ele>416</ele>
        <time>2010-01-01T00:09:40Z</time>
      </trkpt>
      <trkpt lat="48.11084" lon="7.67163">
        <ele>421</ele>
        <time>2010-01-01T00:09:50Z</time>
      </trkpt>
      <trkpt lat="48.11085" lon="7.67161">
        <ele>421</ele>
        <time>2010-01-01T00:09:51Z</time>
      </trkpt>
      <trkpt lat="48.11064" lon="7.67287">
        <ele>438</ele>
        <time>2010-01-01T00:10:25Z</time>
      </trkpt>
      <trkpt lat="48.11062" lon="7.6731">
        <ele>442</ele>
        <time>2010-01-01T00:10:32Z</time>
      </trkpt>
      <trkpt lat="48.11062" lon="7.67333">
        <ele>445</ele>
        <time>2010-01-01T00:10:38Z</time>
      </trkpt>
      <trkpt lat="48.11073" lon="7.67369">
        <ele>447</ele>
        <time>2010-01-01T00:10:48Z</time>
      </trkpt>
      <trkpt lat="48.11092" lon="7.67406">
        <ele>447</ele>
        <time>2010-01-01T00:11:01Z</time>
      </trkpt>
      <trkpt lat="48.112" lon="7.6756">
        <ele>455</ele>
        <time>2010-01-01T00:12:00Z</time>
      </trkpt>
      <trkpt lat="48.11214" lon="7.67579">
        <ele>455</ele>
        <time>2010-01-01T00:12:08Z</time>
      </trkpt>
      <trkpt lat="48.1125" lon="7.67614">
        <ele>455</ele>
        <time>2010-01-01T00:12:25Z</time>
      </trkpt>
      <trkpt lat="48.11278" lon="7.67658">
        <ele>454</ele>
        <time>2010-01-01T00:12:41Z</time>
      </trkpt>
      <trkpt lat="48.11307" lon="7.67723">
        <ele>451</ele>
        <time>2010-01-01T00:13:02Z</time>
      </trkpt>
      <trkpt lat="48.11344" lon="7.67782">
        <ele>445</ele>
        <time>2010-01-01T00:13:24Z</time>
      </trkpt>
      <trkpt lat="48.11392" lon="7.67868">
        <ele>450</ele>
        <time>2010-01-01T00:13:54Z</time>
      </trkpt>
      <trkpt lat="48.11406" lon="7.6797">
        <ele>455</ele>
        <time>2010-01-01T00:14:22Z</time>
      </trkpt>
      <trkpt lat="48.11422" lon="7.68023">
        <ele>462</ele>
        <time>2010-01-01T00:14:37Z</time>
      </trkpt>
      <trkpt lat="48.11439" lon="7.68052">
        <ele>468</ele>
        <time>2010-01-01T00:14:48Z</time>
      </trkpt>
      <trkpt lat="48.11467" lon="7.68084">
        <ele>472</ele>
        <time>2010-01-01T00:15:02Z</time>
      </trkpt>
      <trkpt lat="48.11535" lon="7.68152">
        <ele>472</ele>
        <time>2010-01-01T00:15:34Z</time>
      </trkpt>
      <trkpt lat="48.11548" lon="7.68168">
        <ele>470</ele>
        <time>2010-01-01T00:15:41Z</time>
      </trkpt>
      <trkpt lat="48.11554" lon="7.68176">
        <ele>470</ele>
        <time>2010-01-01T00:15:44Z</time>
      </trkpt>
      <trkpt lat="48.11561" lon="7.68193">
        <ele>468</ele>
        <time>2010-01-01T00:15:50Z</time>
      </trkpt>
      <trkpt lat="48.1157" lon="7.6823">
        <ele>466</ele>
        <time>2010-01-01T00:16:00Z</time>
      </trkpt>
      <trkpt lat="48.11572" lon="7.68256">
        <ele>463</ele>
        <time>2010-01-01T00:16:07Z</time>
      </trkpt>
      <trkpt lat="48.11573" lon="7.68283">
        <ele>459</ele>
        <time>2010-01-01T00:16:14Z</time>
      </trkpt>
      <trkpt lat="48.11554" lon="7.6848">
        <ele>448</ele>
        <time>2010-01-01T00:17:08Z</time>
      </trkpt>
      <trkpt lat="48.11558" lon="7.68512">
        <ele>446</ele>
        <time>2010-01-01T00:17:16Z</time>
      </trkpt>
      <trkpt lat="48.11569" lon="7.68552">
        <ele>443</ele>
        <time>2010-01-01T00:17:28Z</time>
      </trkpt>
      <trkpt lat="48.11583" lon="7.68591">
        <ele>443</ele>
        <time>2010-01-01T00:17:40Z</time>
      </trkpt>
      <trkpt lat="48.11588" lon="7.68604">
        <ele>444</ele>
        <time>2010-01-01T00:17:44Z</time>
      </trkpt>
      <trkpt lat="48.11597" lon="7.68614">
        <ele>445</ele>
        <time>2010-01-01T00:17:48Z</time>
      </trkpt>
      <trkpt lat="48.11601" lon="7.68624">
        <ele>446</ele>
        <time>2010-01-01T00:17:51Z</time>
      </trkpt>
      <trkpt lat="48.11666" lon="7.68864">
        <ele>486</ele>
        <time>2010-01-01T00:19:01Z</time>
      </trkpt>
      <trkpt lat="48.11671" lon="7.6888">
        <ele>486</ele>
        <time>2010-01-01T00:19:05Z</time>
      </trkpt>
      <trkpt lat="48.11679" lon="7.68898">
        <ele>487</ele>
        <time>2010-01-01T00:19:11Z</time>
      </trkpt>
      <trkpt lat="48.1167" lon="7.68913">
        <ele>488</ele>
        <time>2010-01-01T00:19:16Z</time>
      </trkpt>
      <trkpt lat="48.11648" lon="7.68926">
        <ele>487</ele>
        <time>2010-01-01T00:19:26Z</time>
      </trkpt>
      <trkpt lat="48.11579" lon="7.6896">
        <ele>476</ele>
        <time>2010-01-01T00:19:55Z</time>
      </trkpt>
      <trkpt lat="48.11545" lon="7.6896">
        <ele>472</ele>
        <time>2010-01-01T00:20:08Z</time>
      </trkpt>
      <trkpt lat="48.11516" lon="7.68963">
        <ele>471</ele>
        <time>2010-01-01T00:20:20Z</time>
      </trkpt>
      <trkpt lat="48.11508" lon="7.68966">
        <ele>472</ele>
        <time>2010-01-01T00:20:23Z</time>
      </trkpt>
      <trkpt lat="48.11468" lon="7.69">
        <ele>473</ele>
        <time>2010-01-01T00:20:42Z</time>
      </trkpt>
      <trkpt lat="48.11428" lon="7.69043">
        <ele>465</ele>
        <time>2010-01-01T00:21:01Z</time>
      </trkpt>
      <trkpt lat="48.11396" lon="7.69066">
        <ele>460</ele>
        <time>2010-01-01T00:21:16Z</time>
      </trkpt>
      <trkpt lat="48.11349" lon="7.6908">
        <ele>461</ele>
        <time>2010-01-01T00:21:35Z</time>
      </trkpt>
      <trkpt lat="48.11334" lon="7.6908">
        <ele>462</ele>
        <time>2010-01-01T00:21:41Z</time>
      </trkpt>
      <trkpt lat="48.113" lon="7.69075">
        <ele>460</ele>
        <time>2010-01-01T00:21:54Z</time>
      </trkpt>
      <trkpt lat="48.11273" lon="7.69081">
        <ele>457</ele>
        <time>2010-01-01T00:22:06Z</time>
      </trkpt>
      <trkpt lat="48.11254" lon="7.69098">
        <ele>455</ele>
        <time>2010-01-01T00:22:14Z</time>
      </trkpt>
      <trkpt lat="48.11244" lon="7.6912">
        <ele>455</ele>
        <time>2010-01-01T00:22:21Z</time>
      </trkpt>
      <trkpt lat="48.11236" lon="7.69143">
        <ele>455</ele>
        <time>2010-01-01T00:22:28Z</time>
      </trkpt>
      <trkpt lat="48.1123" lon="7.69174">
        <ele>455</ele>
        <time>2010-01-01T00:22:37Z</time>
      </trkpt>
      <trkpt lat="48.11216" lon="7.69208">
        <ele>452</ele>
        <time>2010-01-01T00:22:48Z</time>
      </trkpt>
      <trkpt lat="48.11202" lon="7.69227">
        <ele>448</ele>
        <time>2010-01-01T00:22:55Z</time>
      </trkpt>
      <trkpt lat="48.11191" lon="7.69237">
        <ele>445</ele>
        <time>2010-01-01T00:23:00Z</time>
      </trkpt>
      <trkpt lat="48.11187" lon="7.69243">
        <ele>444</ele>
        <time>2010-01-01T00:23:03Z</time>
      </trkpt>
      <trkpt lat="48.11184" lon="7.6925">
        <ele>443</ele>
        <time>2010-01-01T00:23:05Z</time>
      </trkpt>
      <trkpt lat="48.11185" lon="7.69257">
        <ele>442</ele>
        <time>2010-01-01T00:23:07Z</time>
      </trkpt>
      <trkpt lat="48.11212" lon="7.69319">
        <ele>435</ele>
        <time>2010-01-01T00:23:26Z</time>
      </trkpt>
      <trkpt lat="48.11238" lon="7.69366">
        <ele>434</ele>
        <time>2010-01-01T00:23:43Z</time>
      </trkpt>
      <trkpt lat="48.11244" lon="7.69393">
        <ele>435</ele>
        <time>2010-01-01T00:23:50Z</time>
      </trkpt>
      <trkpt lat="48.11246" lon="7.69412">
        <ele>436</ele>
        <time>2010-01-01T00:23:56Z</time>
      </trkpt>
      <trkpt lat="48.11248" lon="7.69444">
        <ele>439</ele>
        <time>2010-01-01T00:24:04Z</time>
      </trkpt>
      <trkpt lat="48.11246" lon="7.6947">
        <ele>440</ele>
        <time>2010-01-01T00:24:11Z</time>
      </trkpt>
      <trkpt lat="48.11237" lon="7.69514">
        <ele>444</ele>
        <time>2010-01-01T00:24:23Z</time>
      </trkpt>
      <trkpt lat="48.11212" lon="7.69589">
        <ele>452</ele>
        <time>2010-01-01T00:24:46Z</time>
      </trkpt>
      <trkpt lat="48.11212" lon="7.69608">
        <ele>453</ele>
        <time>2010-01-01T00:24:51Z</time>
      </trkpt>
      <trkpt lat="48.11218" lon="7.69626">
        <ele>455</ele>
        <time>2010-01-01T00:24:56Z</time>
      </trkpt>
      <trkpt lat="48.11217" lon="7.69631">
        <ele>455</ele>
        <time>2010-01-01T00:24:58Z</time>
      </trkpt>
      <trkpt lat="48.11218" lon="7.69626">
        <ele>455</ele>
        <time>2010-01-01T00:24:59Z</time>
      </trkpt>
      <trkpt lat="48.11249" lon="7.69655">
        <ele>456</ele>
        <time>2010-01-01T00:25:13Z</time>
      </trkpt>
      <trkpt lat="48.11269" lon="7.69698">
        <ele>455</ele>
        <time>2010-01-01T00:25:27Z</time>
      </trkpt>
      <trkpt lat="48.11278" lon="7.69747">
        <ele>459</ele>
        <time>2010-01-01T00:25:41Z</time>
      </trkpt>
      <trkpt lat="48.11285" lon="7.69799">
        <ele>460</ele>
        <time>2010-01-01T00:25:55Z</time>
      </trkpt>
      <trkpt lat="48.11278" lon="7.69841">
        <ele>461</ele>
        <time>2010-01-01T00:26:07Z</time>
      </trkpt>
      <trkpt lat="48.11271" lon="7.69872">
        <ele>461</ele>
        <time>2010-01-01T00:26:15Z</time>
      </trkpt>
      <trkpt lat="48.1127" lon="7.69885">
        <ele>461</ele>
        <time>2010-01-01T00:26:19Z</time>
      </trkpt>
      <trkpt lat="48.11269" lon="7.69886">
        <ele>461</ele>
        <time>2010-01-01T00:26:20Z</time>
      </trkpt>
      <trkpt lat="48.1127" lon="7.69885">
        <ele>461</ele>
        <time>2010-01-01T00:26:20Z</time>
      </trkpt>
      <trkpt lat="48.11274" lon="7.69914">
        <ele>459</ele>
        <time>2010-01-01T00:26:28Z</time>
      </trkpt>
      <trkpt lat="48.11261" lon="7.69945">
        <ele>457</ele>
        <time>2010-01-01T00:26:38Z</time>
      </trkpt>
      <trkpt lat="48.11207" lon="7.69992">
        <ele>459</ele>
        <time>2010-01-01T00:27:03Z</time>
      </trkpt>
      <trkpt lat="48.11183" lon="7.70041">
        <ele>455</ele>
        <time>2010-01-01T00:27:19Z</time>
      </trkpt>
      <trkpt lat="48.11191" lon="7.70098">
        <ele>436</ele>
        <time>2010-01-01T00:27:34Z</time>
      </trkpt>
      <trkpt lat="48.11234" lon="7.70187">
        <ele>403</ele>
        <time>2010-01-01T00:28:04Z</time>
      </trkpt>
      <trkpt lat="48.11203" lon="7.70266">
        <ele>399</ele>
        <time>2010-01-01T00:28:28Z</time>
      </trkpt>
      <trkpt lat="48.11203" lon="7.70295">
        <ele>393</ele>
        <time>2010-01-01T00:28:36Z</time>
      </trkpt>
      <trkpt lat="48.11195" lon="7.70311">
        <ele>391</ele>
        <time>2010-01-01T00:28:42Z</time>
      </trkpt>
      <trkpt lat="48.11195" lon="7.70318">
        <ele>389</ele>
        <time>2010-01-01T00:28:43Z</time>
      </trkpt>
      <trkpt lat="48.11213" lon="7.7035">
        <ele>384</ele>
        <time>2010-01-01T00:28:55Z</time>
      </trkpt>
      <trkpt lat="48.11239" lon="7.7038">
        <ele>382</ele>
        <time>2010-01-01T00:29:08Z</time>
      </trkpt>
      <trkpt lat="48.11314" lon="7.70489">
        <ele>369</ele>
        <time>2010-01-01T00:29:49Z</time>
      </trkpt>
      <trkpt lat="48.11319" lon="7.70574">
        <ele>358</ele>
        <time>2010-01-01T00:30:12Z</time>
      </trkpt>
      <trkpt lat="48.1132" lon="7.70573">
        <ele>358</ele>
        <time>2010-01-01T00:30:13Z</time>
      </trkpt>
      <trkpt lat="48.11319" lon="7.70574">
        <ele>358</ele>
        <time>2010-01-01T00:30:13Z</time>
      </trkpt>
      <trkpt lat="48.11265" lon="7.70552">
        <ele>358</ele>
        <time>2010-01-01T00:30:35Z</time>
      </trkpt>
      <trkpt lat="48.11231" lon="7.70532">
        <ele>361</ele>
        <time>2010-01-01T00:30:50Z</time>
      </trkpt>
      <trkpt lat="48.11147" lon="7.70467">
        <ele>367</ele>
        <time>2010-01-01T00:31:28Z</time>
      </trkpt>
      <trkpt lat="48.11078" lon="7.70397">
        <ele>375</ele>
        <time>2010-01-01T00:32:01Z</time>
      </trkpt>
      <trkpt lat="48.1105" lon="7.70382">
        <ele>379</ele>
        <time>2010-01-01T00:32:13Z</time>
      </trkpt>
      <trkpt lat="48.11033" lon="7.70379">
        <ele>380</ele>
        <time>2010-01-01T00:32:20Z</time>
      </trkpt>
      <trkpt lat="48.10979" lon="7.70391">
        <ele>378</ele>
        <time>2010-01-01T00:32:42Z</time>
      </trkpt>
      <trkpt lat="48.10961" lon="7.70402">
        <ele>376</ele>
        <time>2010-01-01T00:32:50Z</time>
      </trkpt>
      <trkpt lat="48.10937" lon="7.70429">
        <ele>375</ele>
        <time>2010-01-01T00:33:02Z</time>
      </trkpt>
      <trkpt lat="48.10902" lon="7.70451">
        <ele>381</ele>
        <time>2010-01-01T00:33:17Z</time>
      </trkpt>
      <trkpt lat="48.10869" lon="7.70449">
        <ele>391</ele>
        <time>2010-01-01T00:33:30Z</time>
      </trkpt>
      <trkpt lat="48.10827" lon="7.70433">
        <ele>396</ele>
        <time>2010-01-01T00:33:47Z</time>
      </trkpt>
      <trkpt lat="48.10806" lon="7.70418">
        <ele>397</ele>
        <time>2010-01-01T00:33:57Z</time>
      </trkpt>
      <trkpt lat="48.10779" lon="7.70384">
        <ele>404</ele>
        <time>2010-01-01T00:34:11Z</time>
      </trkpt>
      <trkpt lat="48.10738" lon="7.70326">
        <ele>410</ele>
        <time>2010-01-01T00:34:33Z</time>
      </trkpt>
      <trkpt lat="48.10719" lon="7.70317">
        <ele>411</ele>
        <time>2010-01-01T00:34:41Z</time>
      </trkpt>
      <trkpt lat="48.10695" lon="7.70309">
        <ele>412</ele>
        <time>2010-01-01T00:34:51Z</time>
      </trkpt>
      <trkpt lat="48.10686" lon="7.70323">
        <ele>411</ele>
        <time>2010-01-01T00:34:56Z</time>
      </trkpt>
      <trkpt lat="48.10672" lon="7.70349">
        <ele>410</ele>
        <time>2010-01-01T00:35:05Z</time>
      </trkpt>
      <trkpt lat="48.10646" lon="7.70416">
        <ele>402</ele>
        <time>2010-01-01T00:35:26Z</time>
      </trkpt>
      <trkpt lat="48.10629" lon="7.70418">
        <ele>402</ele>
        <time>2010-01-01T00:35:33Z</time>
      </trkpt>
      <trkpt lat="48.10606" lon="7.70401">
        <ele>402</ele>
        <time>2010-01-01T00:35:43Z</time>
      </trkpt>
      <trkpt lat="48.10556" lon="7.70332">
        <ele>409</ele>
        <time>2010-01-01T00:36:10Z</time>
      </trkpt>
      <trkpt lat="48.10537" lon="7.70334">
        <ele>406</ele>
        <time>2010-01-01T00:36:18Z</time>
      </trkpt>
      <trkpt lat="48.10516" lon="7.70328">
        <ele>405</ele>
        <time>2010-01-01T00:36:27Z</time>
      </trkpt>
      <trkpt lat="48.10498" lon="7.70318">
        <ele>404</ele>
        <time>2010-01-01T00:36:34Z</time>
      </trkpt>
      <trkpt lat="48.10448" lon="7.70284">
        <ele>394</ele>
        <time>2010-01-01T00:36:56Z</time>
      </trkpt>
      <trkpt lat="48.10421" lon="7.70276">
        <ele>387</ele>
        <time>2010-01-01T00:37:07Z</time>
      </trkpt>
      <trkpt lat="48.10405" lon="7.70283">
        <ele>381</ele>
        <time>2010-01-01T00:37:14Z</time>
      </trkpt>
      <trkpt lat="48.10397" lon="7.7029">
        <ele>378</ele>
        <time>2010-01-01T00:37:18Z</time>
      </trkpt>
      <trkpt lat="48.1039" lon="7.70248">
        <ele>383</ele>
        <time>2010-01-01T00:37:29Z</time>
      </trkpt>
      <trkpt lat="48.1039" lon="7.70227">
        <ele>385</ele>
        <time>2010-01-01T00:37:35Z</time>
      </trkpt>
      <trkpt lat="48.10298" lon="7.70188">
        <ele>366</ele>
        <time>2010-01-01T00:38:13Z</time>
      </trkpt>
      <trkpt lat="48.10277" lon="7.70177">
        <ele>362</ele>
        <time>2010-01-01T00:38:22Z</time>
      </trkpt>
      <trkpt lat="48.10271" lon="7.70173">
        <ele>362</ele>
        <time>2010-01-01T00:38:25Z</time>
      </trkpt>
      <trkpt lat="48.10264" lon="7.70163">
        <ele>362</ele>
        <time>2010-01-01T00:38:29Z</time>
      </trkpt>
      <trkpt lat="48.10271" lon="7.70157">
        <ele>365</ele>
        <time>2010-01-01T00:38:32Z</time>
      </trkpt>
      <trkpt lat="48.10285" lon="7.70132">
        <ele>372</ele>
        <time>2010-01-01T00:38:40Z</time>
      </trkpt>
      <trkpt lat="48.10293" lon="7.70113">
        <ele>376</ele>
        <time>2010-01-01T00:38:46Z</time>
      </trkpt>
      <trkpt lat="48.10265" lon="7.70073">
        <ele>378</ele>
        <time>2010-01-01T00:39:02Z</time>
      </trkpt>
      <trkpt lat="48.10252" lon="7.70057">
        <ele>378</ele>
        <time>2010-01-01T00:39:09Z</time>
      </trkpt>
      <trkpt lat="48.10235" lon="7.70048">
        <ele>380</ele>
        <time>2010-01-01T00:39:16Z</time>
      </trkpt>
      <trkpt lat="48.10221" lon="7.70043">
        <ele>383</ele>
        <time>2010-01-01T00:39:22Z</time>
      </trkpt>
      <trkpt lat="48.10203" lon="7.70042">
        <ele>385</ele>
        <time>2010-01-01T00:39:29Z</time>
      </trkpt>
      <trkpt lat="48.10184" lon="7.70034">
        <ele>387</ele>
        <time>2010-01-01T00:39:37Z</time>
      </trkpt>
      <trkpt lat="48.10154" lon="7.70006">
        <ele>389</ele>
        <time>2010-01-01T00:39:51Z</time>
      </trkpt>
      <trkpt lat="48.10137" lon="7.69967">
        <ele>397</ele>
        <time>2010-01-01T00:40:03Z</time>
      </trkpt>
      <trkpt lat="48.1012" lon="7.69948">
        <ele>400</ele>
        <time>2010-01-01T00:40:12Z</time>
      </trkpt>
      <trkpt lat="48.101" lon="7.69938">
        <ele>401</ele>
        <time>2010-01-01T00:40:20Z</time>
      </trkpt>
      <trkpt lat="48.10039" lon="7.69922">
        <ele>402</ele>
        <time>2010-01-01T00:40:45Z</time>
      </trkpt>
      <trkpt lat="48.0999" lon="7.699">
        <ele>407</ele>
        <time>2010-01-01T00:41:06Z</time>
      </trkpt>
      <trkpt lat="48.09967" lon="7.69887">
        <ele>411</ele>
        <time>2010-01-01T00:41:16Z</time>
      </trkpt>
      <trkpt lat="48.09945" lon="7.69881">
        <ele>412</ele>
        <time>2010-01-01T00:41:25Z</time>
      </trkpt>
      <trkpt lat="48.09917" lon="7.69886">
        <ele>411</ele>
        <time>2010-01-01T00:41:36Z</time>
      </trkpt>
      <trkpt lat="48.09893" lon="7.69872">
        <ele>416</ele>
        <time>2010-01-01T00:41:46Z</time>
      </trkpt>
      <trkpt lat="48.09872" lon="7.69862">
        <ele>419</ele>
        <time>2010-01-01T00:41:55Z</time>
      </trkpt>
      <trkpt lat="48.09847" lon="7.69863">
        <ele>420</ele>
        <time>2010-01-01T00:42:05Z</time>
      </trkpt>
      <trkpt lat="48.09818" lon="7.69868">
        <ele>422</ele>
        <time>2010-01-01T00:42:17Z</time>
      </trkpt>
      <trkpt lat="48.09805" lon="7.69887">
        <ele>421</ele>
        <time>2010-01-01T00:42:24Z</time>
      </trkpt>
      <trkpt lat="48.09791" lon="7.6992">
        <ele>420</ele>
        <time>2010-01-01T00:42:34Z</time>
      </trkpt>
      <trkpt lat="48.09773" lon="7.69946">
        <ele>423</ele>
        <time>2010-01-01T00:42:44Z</time>
      </trkpt>
      <trkpt lat="48.09757" lon="7.6996">
        <ele>427</ele>
        <time>2010-01-01T00:42:52Z</time>
      </trkpt>
      <trkpt lat="48.09734" lon="7.69961">
        <ele>430</ele>
        <time>2010-01-01T00:43:01Z</time>
      </trkpt>
      <trkpt lat="48.09702" lon="7.69954">
        <ele>434</ele>
        <time>2010-01-01T00:43:14Z</time>
      </trkpt>
      <trkpt lat="48.09629" lon="7.69956">
        <ele>430</ele>
        <time>2010-01-01T00:43:43Z</time>
      </trkpt>
      <trkpt lat="48.09583" lon="7.69967">
        <ele>431</ele>
        <time>2010-01-01T00:44:02Z</time>
      </trkpt>
      <trkpt lat="48.0956" lon="7.69987">
        <ele>428</ele>
        <time>2010-01-01T00:44:12Z</time>
      </trkpt>
      <trkpt lat="48.09535" lon="7.70008">
        <ele>426</ele>
        <time>2010-01-01T00:44:24Z</time>
      </trkpt>
      <trkpt lat="48.09506" lon="7.70007">
        <ele>427</ele>
        <time>2010-01-01T00:44:35Z</time>
      </trkpt>
      <trkpt lat="48.09484" lon="7.69997">
        <ele>428</ele>
        <time>2010-01-01T00:44:45Z</time>
      </trkpt>
      <trkpt lat="48.09467" lon="7.69962">
        <ele>433</ele>
        <time>2010-01-01T00:44:56Z</time>
      </trkpt>
      <trkpt lat="48.09449" lon="7.69919">
        <ele>438</ele>
        <time>2010-01-01T00:45:10Z</time>
      </trkpt>
      <trkpt lat="48.09413" lon="7.69885">
        <ele>439</ele>
        <time>2010-01-01T00:45:27Z</time>
      </trkpt>
      <trkpt lat="48.09355" lon="7.69835">
        <ele>444</ele>
        <time>2010-01-01T00:45:54Z</time>
      </trkpt>
      <trkpt lat="48.09325" lon="7.6983">
        <ele>447</ele>
        <time>2010-01-01T00:46:06Z</time>
      </trkpt>
      <trkpt lat="48.09298" lon="7.6984">
        <ele>447</ele>
        <time>2010-01-01T00:46:17Z</time>
      </trkpt>
      <trkpt lat="48.09265" lon="7.69892">
        <ele>445</ele>
        <time>2010-01-01T00:46:36Z</time>
      </trkpt>
      <trkpt lat="48.09249" lon="7.69936">
        <ele>444</ele>
        <time>2010-01-01T00:46:49Z</time>
      </trkpt>
      <trkpt lat="48.09226" lon="7.69986">
        <ele>442</ele>
        <time>2010-01-01T00:47:06Z</time>
      </trkpt>
      <trkpt lat="48.09214" lon="7.69995">
        <ele>442</ele>
        <time>2010-01-01T00:47:11Z</time>
      </trkpt>
      <trkpt lat="48.09212" lon="7.69986">
        <ele>443</ele>
        <time>2010-01-01T00:47:14Z</time>
      </trkpt>
      <trkpt lat="48.09199" lon="7.69951">
        <ele>453</ele>
        <time>2010-01-01T00:47:24Z</time>
      </trkpt>
      <trkpt lat="48.09188" lon="7.69912">
        <ele>464</ele>
        <time>2010-01-01T00:47:36Z</time>
      </trkpt>
      <trkpt lat="48.09186" lon="7.69881">
        <ele>470</ele>
        <time>2010-01-01T00:47:44Z</time>
      </trkpt>
      <trkpt lat="48.09184" lon="7.69827">
        <ele>482</ele>
        <time>2010-01-01T00:47:59Z</time>
      </trkpt>
      <trkpt lat="48.09177" lon="7.69792">
        <ele>490</ele>
        <time>2010-01-01T00:48:08Z</time>
      </trkpt>
      <trkpt lat="48.09182" lon="7.69768">
        <ele>496</ele>
        <time>2010-01-01T00:48:15Z</time>
      </trkpt>
      <trkpt lat="48.09192" lon="7.69696">
        <ele>513</ele>
        <time>2010-01-01T00:48:35Z</time>
      </trkpt>
      <trkpt lat="48.09191" lon="7.69689">
        <ele>513</ele>
        <time>2010-01-01T00:48:37Z</time>
      </trkpt>
      <trkpt lat="48.09197" lon="7.69661">
        <ele>518</ele>
        <time>2010-01-01T00:48:45Z</time>
      </trkpt>
      <trkpt lat="48.09222" lon="7.69617">
        <ele>520</ele>
        <time>2010-01-01T00:49:00Z</time>
      </trkpt>
      <trkpt lat="48.09225" lon="7.69599">
        <ele>521</ele>
        <time>2010-01-01T00:49:05Z</time>
      </trkpt>
      <trkpt lat="48.09219" lon="7.696">
        <ele>520</ele>
        <time>2010-01-01T00:49:08Z</time>
      </trkpt>
      <trkpt lat="48.09203" lon="7.6959">
        <ele>518</ele>
        <time>2010-01-01T00:49:14Z</time>
      </trkpt>
      <trkpt lat="48.09182" lon="7.69562">
        <ele>511</ele>
        <time>2010-01-01T00:49:26Z</time>
      </trkpt>
      <trkpt lat="48.09147" lon="7.69521">
        <ele>496</ele>
        <time>2010-01-01T00:49:44Z</time>
      </trkpt>
      <trkpt lat="48.09067" lon="7.69409">
        <ele>451</ele>
        <time>2010-01-01T00:50:27Z</time>
      </trkpt>
      <trkpt lat="48.09065" lon="7.69397">
        <ele>449</ele>
        <time>2010-01-01T00:50:31Z</time>
      </trkpt>
      <trkpt lat="48.09027" lon="7.69348">
        <ele>438</ele>
        <time>2010-01-01T00:50:51Z</time>
      </trkpt>
      <trkpt lat="48.09012" lon="7.69332">
        <ele>439</ele>
        <time>2010-01-01T00:50:58Z</time>
      </trkpt>
      <trkpt lat="48.09005" lon="7.69327">
        <ele>439</ele>
        <time>2010-01-01T00:51:02Z</time>
      </trkpt>
      <trkpt lat="48.08985" lon="7.69316">
        <ele>438</ele>
        <time>2010-01-01T00:51:10Z</time>
      </trkpt>
      <trkpt lat="48.08966" lon="7.6931">
        <ele>437</ele>
        <time>2010-01-01T00:51:18Z</time>
      </trkpt>
      <trkpt lat="48.08941" lon="7.69294">
        <ele>433</ele>
        <time>2010-01-01T00:51:28Z</time>
      </trkpt>
      <trkpt lat="48.08924" lon="7.69277">
        <ele>427</ele>
        <time>2010-01-01T00:51:37Z</time>
      </trkpt>
      <trkpt lat="48.08905" lon="7.69261">
        <ele>421</ele>
        <time>2010-01-01T00:51:46Z</time>
      </trkpt>
      <trkpt lat="48.08882" lon="7.69237">
        <ele>415</ele>
        <time>2010-01-01T00:51:57Z</time>
      </trkpt>
      <trkpt lat="48.08859" lon="7.6922">
        <ele>410</ele>
        <time>2010-01-01T00:52:07Z</time>
      </trkpt>
      <trkpt lat="48.08781" lon="7.69157">
        <ele>397</ele>
        <time>2010-01-01T00:52:42Z</time>
      </trkpt>
      <trkpt lat="48.08762" lon="7.69135">
        <ele>396</ele>
        <time>2010-01-01T00:52:52Z</time>
      </trkpt>
      <trkpt lat="48.08724" lon="7.69103">
        <ele>392</ele>
        <time>2010-01-01T00:53:10Z</time>
      </trkpt>
      <trkpt lat="48.087" lon="7.69086">
        <ele>387</ele>
        <time>2010-01-01T00:53:20Z</time>
      </trkpt>
      <trkpt lat="48.08687" lon="7.69079">
        <ele>386</ele>
        <time>2010-01-01T00:53:26Z</time>
      </trkpt>
      <trkpt lat="48.08681" lon="7.69078">
        <ele>385</ele>
        <time>2010-01-01T00:53:28Z</time>
      </trkpt>
      <trkpt lat="48.08675" lon="7.69085">
        <ele>385</ele>
        <time>2010-01-01T00:53:31Z</time>
      </trkpt>
      <trkpt lat="48.0867" lon="7.69095">
        <ele>385</ele>
        <time>2010-01-01T00:53:34Z</time>
      </trkpt>
      <trkpt lat="48.08663" lon="7.69119">
        <ele>384</ele>
        <time>2010-01-01T00:53:42Z</time>
      </trkpt>
      <trkpt lat="48.08657" lon="7.69152">
        <ele>382</ele>
        <time>2010-01-01T00:53:51Z</time>
      </trkpt>
      <trkpt lat="48.08657" lon="7.69184">
        <ele>378</ele>
        <time>2010-01-01T00:53:59Z</time>
      </trkpt>
      <trkpt lat="48.08658" lon="7.69197">
        <ele>375</ele>
        <time>2010-01-01T00:54:03Z</time>
      </trkpt>
      <trkpt lat="48.08667" lon="7.69211">
        <ele>374</ele>
        <time>2010-01-01T00:54:08Z</time>
      </trkpt>
      <trkpt lat="48.08667" lon="7.69215">
        <ele>373</ele>
        <time>2010-01-01T00:54:09Z</time>
      </trkpt>
      <trkpt lat="48.08666" lon="7.69218">
        <ele>372</ele>
        <time>2010-01-01T00:54:10Z</time>
      </trkpt>
      <trkpt lat="48.08657" lon="7.69222">
        <ele>371</ele>
        <time>2010-01-01T00:54:14Z</time>
      </trkpt>
      <trkpt lat="48.0865" lon="7.69223">
        <ele>370</ele>
        <time>2010-01-01T00:54:16Z</time>
      </trkpt>
      <trkpt lat="48.08649" lon="7.6922">
        <ele>371</ele>
        <time>2010-01-01T00:54:17Z</time>
      </trkpt>
      <trkpt lat="48.0865" lon="7.69223">
        <ele>370</ele>
        <time>2010-01-01T00:54:18Z</time>
      </trkpt>
      <trkpt lat="48.08637" lon="7.69222">
        <ele>369</ele>
        <time>2010-01-01T00:54:23Z</time>
      </trkpt>
      <trkpt lat="48.08635" lon="7.69224">
        <ele>369</ele>
        <time>2010-01-01T00:54:24Z</time>
      </trkpt>
      <trkpt lat="48.08622" lon="7.6922">
        <ele>370</ele>
        <time>2010-01-01T00:54:30Z</time>
      </trkpt>
      <trkpt lat="48.08606" lon="7.69213">
        <ele>372</ele>
        <time>2010-01-01T00:54:36Z</time>
      </trkpt>
      <trkpt lat="48.08585" lon="7.69205">
        <ele>373</ele>
        <time>2010-01-01T00:54:45Z</time>
      </trkpt>
      <trkpt lat="48.08574" lon="7.69207">
        <ele>372</ele>
        <time>2010-01-01T00:54:49Z</time>
      </trkpt>
      <trkpt lat="48.08564" lon="7.69211">
        <ele>371</ele>
        <time>2010-01-01T00:54:53Z</time>
      </trkpt>
      <trkpt lat="48.08552" lon="7.69219">
        <ele>369</ele>
        <time>2010-01-01T00:54:59Z</time>
      </trkpt>
      <trkpt lat="48.08532" lon="7.69235">
        <ele>369</ele>
        <time>2010-01-01T00:55:08Z</time>
      </trkpt>
      <trkpt lat="48.08528" lon="7.69229">
        <ele>369</ele>
        <time>2010-01-01T00:55:10Z</time>
      </trkpt>
      <trkpt lat="48.08526" lon="7.69222">
        <ele>369</ele>
        <time>2010-01-01T00:55:12Z</time>
      </trkpt>
      <trkpt lat="48.08527" lon="7.69215">
        <ele>370</ele>
        <time>2010-01-01T00:55:14Z</time>
      </trkpt>
      <trkpt lat="48.08547" lon="7.69185">
        <ele>373</ele>
        <time>2010-01-01T00:55:25Z</time>
      </trkpt>
      <trkpt lat="48.08553" lon="7.69178">
        <ele>374</ele>
        <time>2010-01-01T00:55:28Z</time>
      </trkpt>
      <trkpt lat="48.08564" lon="7.69169">
        <ele>376</ele>
        <time>2010-01-01T00:55:33Z</time>
      </trkpt>
      <trkpt lat="48.08591" lon="7.69154">
        <ele>381</ele>
        <time>2010-01-01T00:55:45Z</time>
      </trkpt>
      <trkpt lat="48.08596" lon="7.69149">
        <ele>382</ele>
        <time>2010-01-01T00:55:47Z</time>
      </trkpt>
      <trkpt lat="48.08598" lon="7.69144">
        <ele>383</ele>
        <time>2010-01-01T00:55:49Z</time>
      </trkpt>
      <trkpt lat="48.08593" lon="7.69085">
        <ele>385</ele>
        <time>2010-01-01T00:56:05Z</time>
      </trkpt>
      <trkpt lat="48.08582" lon="7.6903">
        <ele>386</ele>
        <time>2010-01-01T00:56:20Z</time>
      </trkpt>
      <trkpt lat="48.08578" lon="7.68981">
        <ele>389</ele>
        <time>2010-01-01T00:56:33Z</time>
      </trkpt>
      <trkpt lat="48.08558" lon="7.68932">
        <ele>390</ele>
        <time>2010-01-01T00:56:49Z</time>
      </trkpt>
      <trkpt lat="48.08554" lon="7.68911">
        <ele>391</ele>
        <time>2010-01-01T00:56:55Z</time>
      </trkpt>
      <trkpt lat="48.08552" lon="7.68891">
        <ele>393</ele>
        <time>2010-01-01T00:57:00Z</time>
      </trkpt>
      <trkpt lat="48.08555" lon="7.6886">
        <ele>398</ele>
        <time>2010-01-01T00:57:08Z</time>
      </trkpt>
      <trkpt lat="48.08558" lon="7.68854">
        <ele>399</ele>
        <time>2010-01-01T00:57:10Z</time>
      </trkpt>
      <trkpt lat="48.08564" lon="7.68854">
        <ele>399</ele>
        <time>2010-01-01T00:57:12Z</time>
      </trkpt>
      <trkpt lat="48.0856" lon="7.6882">
        <ele>408</ele>
        <time>2010-01-01T00:57:22Z</time>
      </trkpt>
      <trkpt lat="48.08554" lon="7.68798">
        <ele>415</ele>
        <time>2010-01-01T00:57:28Z</time>
      </trkpt>
      <trkpt lat="48.08509" lon="7.68678">
        <ele>424</ele>
        <time>2010-01-01T00:58:05Z</time>
      </trkpt>
      <trkpt lat="48.0849" lon="7.68639">
        <ele>427</ele>
        <time>2010-01-01T00:58:18Z</time>
      </trkpt>
      <trkpt lat="48.08463" lon="7.68596">
        <ele>429</ele>
        <time>2010-01-01T00:58:34Z</time>
      </trkpt>
      <trkpt lat="48.08418" lon="7.68549">
        <ele>436</ele>
        <time>2010-01-01T00:58:56Z</time>
      </trkpt>
      <trkpt lat="48.08396" lon="7.68512">
        <ele>441</ele>
        <time>2010-01-01T00:59:09Z</time>
      </trkpt>
      <trkpt lat="48.08391" lon="7.68491">
        <ele>441</ele>
        <time>2010-01-01T00:59:15Z</time>
      </trkpt>
      <trkpt lat="48.08391" lon="7.68437">
        <ele>442</ele>
        <time>2010-01-01T00:59:29Z</time>
      </trkpt>
      <trkpt lat="48.08397" lon="7.68405">
        <ele>444</ele>
        <time>2010-01-01T00:59:38Z</time>
      </trkpt>
      <trkpt lat="48.08412" lon="7.68371">
        <ele>446</ele>
        <time>2010-01-01T00:59:49Z</time>
      </trkpt>
      <trkpt lat="48.08419" lon="7.68341">
        <ele>448</ele>
        <time>2010-01-01T00:59:58Z</time>
      </trkpt>
      <trkpt lat="48.08436" lon="7.68286">
        <ele>449</ele>
        <time>2010-01-01T01:00:14Z</time>
      </trkpt>
      <trkpt lat="48.08438" lon="7.68265">
        <ele>449</ele>
        <time>2010-01-01T01:00:19Z</time>
      </trkpt>
      <trkpt lat="48.08433" lon="7.68232">
        <ele>454</ele>
        <time>2010-01-01T01:00:28Z</time>
      </trkpt>
      <trkpt lat="48.08428" lon="7.68216">
        <ele>458</ele>
        <time>2010-01-01T01:00:33Z</time>
      </trkpt>
      <trkpt lat="48.08414" lon="7.68196">
        <ele>464</ele>
        <time>2010-01-01T01:00:41Z</time>
      </trkpt>
      <trkpt lat="48.08401" lon="7.68164">
        <ele>466</ele>
        <time>2010-01-01T01:00:51Z</time>
      </trkpt>
      <trkpt lat="48.08388" lon="7.68124">
        <ele>466</ele>
        <time>2010-01-01T01:01:03Z</time>
      </trkpt>
      <trkpt lat="48.08383" lon="7.68095">
        <ele>464</ele>
        <time>2010-01-01T01:01:11Z</time>
      </trkpt>
      <trkpt lat="48.08377" lon="7.68071">
        <ele>462</ele>
        <time>2010-01-01T01:01:18Z</time>
      </trkpt>
      <trkpt lat="48.08365" lon="7.68046">
        <ele>461</ele>
        <time>2010-01-01T01:01:26Z</time>
      </trkpt>
      <trkpt lat="48.08436" lon="7.6811">
        <ele>467</ele>
        <time>2010-01-01T01:01:59Z</time>
      </trkpt>
      <trkpt lat="48.08443" lon="7.6811">
        <ele>466</ele>
        <time>2010-01-01T01:02:02Z</time>
      </trkpt>
      <trkpt lat="48.08454" lon="7.68117">
        <ele>465</ele>
        <time>2010-01-01T01:02:07Z</time>
      </trkpt>
      <trkpt lat="48.08472" lon="7.68131">
        <ele>465</ele>
        <time>2010-01-01T01:02:15Z</time>
      </trkpt>
      <trkpt lat="48.08483" lon="7.68131">
        <ele>465</ele>
        <time>2010-01-01T01:02:19Z</time>
      </trkpt>
      <trkpt lat="48.085" lon="7.68126">
        <ele>464</ele>
        <time>2010-01-01T01:02:26Z</time>
      </trkpt>
      <trkpt lat="48.08511" lon="7.68118">
        <ele>463</ele>
        <time>2010-01-01T01:02:31Z</time>
      </trkpt>
      <trkpt lat="48.08519" lon="7.68115">
        <ele>463</ele>
        <time>2010-01-01T01:02:34Z</time>
      </trkpt>
      <trkpt lat="48.08528" lon="7.68115">
        <ele>464</ele>
        <time>2010-01-01T01:02:38Z</time>
      </trkpt>
      <trkpt lat="48.08535" lon="7.68118">
        <ele>463</ele>
        <time>2010-01-01T01:02:41Z</time>
      </trkpt>
      <trkpt lat="48.08552" lon="7.68113">
        <ele>462</ele>
        <time>2010-01-01T01:02:48Z</time>
      </trkpt>
      <trkpt lat="48.0856" lon="7.681">
        <ele>460</ele>
        <time>2010-01-01T01:02:52Z</time>
      </trkpt>
      <trkpt lat="48.08568" lon="7.68083">
        <ele>458</ele>
        <time>2010-01-01T01:02:58Z</time>
      </trkpt>
      <trkpt lat="48.08573" lon="7.68058">
        <ele>454</ele>
        <time>2010-01-01T01:03:05Z</time>
      </trkpt>
      <trkpt lat="48.08575" lon="7.68017">
        <ele>448</ele>
        <time>2010-01-01T01:03:16Z</time>
      </trkpt>
      <trkpt lat="48.08567" lon="7.67993">
        <ele>446</ele>
        <time>2010-01-01T01:03:23Z</time>
      </trkpt>
      <trkpt lat="48.08566" lon="7.67973">
        <ele>444</ele>
        <time>2010-01-01T01:03:28Z</time>
      </trkpt>
      <trkpt lat="48.08541" lon="7.67972">
        <ele>442</ele>
        <time>2010-01-01T01:03:38Z</time>
      </trkpt>
      <trkpt lat="48.08509" lon="7.68">
        <ele>442</ele>
        <time>2010-01-01T01:03:53Z</time>
      </trkpt>
      <trkpt lat="48.08484" lon="7.68004">
        <ele>441</ele>
        <time>2010-01-01T01:04:03Z</time>
      </trkpt>
      <trkpt lat="48.08442" lon="7.67982">
        <ele>438</ele>
        <time>2010-01-01T01:04:21Z</time>
      </trkpt>
      <trkpt lat="48.08391" lon="7.67913">
        <ele>434</ele>
        <time>2010-01-01T01:04:49Z</time>
      </trkpt>
      <trkpt lat="48.08372" lon="7.67873">
        <ele>435</ele>
        <time>2010-01-01T01:05:02Z</time>
      </trkpt>
      <trkpt lat="48.08344" lon="7.67841">
        <ele>441</ele>
        <time>2010-01-01T01:05:16Z</time>
      </trkpt>
      <trkpt lat="48.08336" lon="7.67814">
        <ele>442</ele>
        <time>2010-01-01T01:05:24Z</time>
      </trkpt>
      <trkpt lat="48.0834" lon="7.67788">
        <ele>440</ele>
        <time>2010-01-01T01:05:31Z</time>
      </trkpt>
      <trkpt lat="48.08354" lon="7.67768">
        <ele>437</ele>
        <time>2010-01-01T01:05:39Z</time>
      </trkpt>
      <trkpt lat="48.08394" lon="7.67737">
        <ele>429</ele>
        <time>2010-01-01T01:05:57Z</time>
      </trkpt>
      <trkpt lat="48.08435" lon="7.67678">
        <ele>430</ele>
        <time>2010-01-01T01:06:20Z</time>
      </trkpt>
      <trkpt lat="48.08453" lon="7.67635">
        <ele>429</ele>
        <time>2010-01-01T01:06:33Z</time>
      </trkpt>
      <trkpt lat="48.08459" lon="7.67606">
        <ele>426</ele>
        <time>2010-01-01T01:06:41Z</time>
      </trkpt>
      <trkpt lat="48.08448" lon="7.67575">
        <ele>426</ele>
        <time>2010-01-01T01:06:50Z</time>
      </trkpt>
      <trkpt lat="48.08429" lon="7.67553">
        <ele>429</ele>
        <time>2010-01-01T01:07:00Z</time>
      </trkpt>
      <trkpt lat="48.08399" lon="7.67529">
        <ele>431</ele>
        <time>2010-01-01T01:07:14Z</time>
      </trkpt>
      <trkpt lat="48.08375" lon="7.67504">
        <ele>434</ele>
        <time>2010-01-01T01:07:25Z</time>
      </trkpt>
      <trkpt lat="48.08373" lon="7.67467">
        <ele>433</ele>
        <time>2010-01-01T01:07:35Z</time>
      </trkpt>
      <trkpt lat="48.08391" lon="7.67422">
        <ele>429</ele>
        <time>2010-01-01T01:07:49Z</time>
      </trkpt>
      <trkpt lat="48.08392" lon="7.67323">
        <ele>434</ele>
        <time>2010-01-01T01:08:16Z</time>
      </trkpt>
      <trkpt lat="48.08402" lon="7.6731">
        <ele>435</ele>
        <time>2010-01-01T01:08:21Z</time>
      </trkpt>
      <trkpt lat="48.08422" lon="7.67325">
        <ele>433</ele>
        <time>2010-01-01T01:08:30Z</time>
      </trkpt>
      <trkpt lat="48.08492" lon="7.67352">
        <ele>425</ele>
        <time>2010-01-01T01:08:59Z</time>
      </trkpt>
      <trkpt lat="48.08503" lon="7.67337">
        <ele>425</ele>
        <time>2010-01-01T01:09:05Z</time>
      </trkpt>
      <trkpt lat="48.08483" lon="7.67282">
        <ele>429</ele>
        <time>2010-01-01T01:09:22Z</time>
      </trkpt>
      <trkpt lat="48.08479" lon="7.67207">
        <ele>432</ele>
        <time>2010-01-01T01:09:42Z</time>
      </trkpt>
      <trkpt lat="48.08493" lon="7.67167">
        <ele>431</ele>
        <time>2010-01-01T01:09:53Z</time>
      </trkpt>
      <trkpt lat="48.08486" lon="7.67126">
        <ele>430</ele>
        <time>2010-01-01T01:10:05Z</time>
      </trkpt>
      <trkpt lat="48.08471" lon="7.67105">
        <ele>432</ele>
        <time>2010-01-01T01:10:13Z</time>
      </trkpt>
      <trkpt lat="48.0846" lon="7.67064">
        <ele>435</ele>
        <time>2010-01-01T01:10:25Z</time>
      </trkpt>
      <trkpt lat="48.08466" lon="7.67041">
        <ele>435</ele>
        <time>2010-01-01T01:10:32Z</time>
      </trkpt>
      <trkpt lat="48.08505" lon="7.6697">
        <ele>433</ele>
        <time>2010-01-01T01:10:56Z</time>
      </trkpt>
      <trkpt lat="48.08514" lon="7.66956">
        <ele>430</ele>
        <time>2010-01-01T01:11:01Z</time>
      </trkpt>
      <trkpt lat="48.08519" lon="7.66943">
        <ele>429</ele>
        <time>2010-01-01T01:11:05Z</time>
      </trkpt>
      <trkpt lat="48.08515" lon="7.66919">
        <ele>431</ele>
        <time>2010-01-01T01:11:12Z</time>
      </trkpt>
      <trkpt lat="48.085" lon="7.66854">
        <ele>437</ele>
        <time>2010-01-01T01:11:31Z</time>
      </trkpt>
      <trkpt lat="48.08513" lon="7.66814">
        <ele>433</ele>
        <time>2010-01-01T01:11:42Z</time>
      </trkpt>
      <trkpt lat="48.08534" lon="7.66772">
        <ele>430</ele>
        <time>2010-01-01T01:11:56Z</time>
      </trkpt>
      <trkpt lat="48.08554" lon="7.66743">
        <ele>425</ele>
        <time>2010-01-01T01:12:08Z</time>
      </trkpt>
      <trkpt lat="48.08561" lon="7.66712">
        <ele>426</ele>
        <time>2010-01-01T01:12:16Z</time>
      </trkpt>
      <trkpt lat="48.08578" lon="7.66665">
        <ele>423</ele>
        <time>2010-01-01T01:12:31Z</time>
      </trkpt>
      <trkpt lat="48.08579" lon="7.66603">
        <ele>423</ele>
        <time>2010-01-01T01:12:47Z</time>
      </trkpt>
      <trkpt lat="48.08572" lon="7.66539">
        <ele>421</ele>
        <time>2010-01-01T01:13:05Z</time>
      </trkpt>
      <trkpt lat="48.08567" lon="7.6653">
        <ele>421</ele>
        <time>2010-01-01T01:13:08Z</time>
      </trkpt>
      <trkpt lat="48.08569" lon="7.66524">
        <ele>420</ele>
        <time>2010-01-01T01:13:10Z</time>
      </trkpt>
      <trkpt lat="48.08565" lon="7.66515">
        <ele>419</ele>
        <time>2010-01-01T01:13:13Z</time>
      </trkpt>
      <trkpt lat="48.08569" lon="7.66524">
        <ele>420</ele>
        <time>2010-01-01T01:13:15Z</time>
      </trkpt>
      <trkpt lat="48.08567" lon="7.6653">
        <ele>421</ele>
        <time>2010-01-01T01:13:17Z</time>
      </trkpt>
      <trkpt lat="48.0859" lon="7.66527">
        <ele>420</ele>
        <time>2010-01-01T01:13:27Z</time>
      </trkpt>
      <trkpt lat="48.08608" lon="7.6653">
        <ele>419</ele>
        <time>2010-01-01T01:13:34Z</time>
      </trkpt>
      <trkpt lat="48.08628" lon="7.66542">
        <ele>415</ele>
        <time>2010-01-01T01:13:43Z</time>
      </trkpt>
      <trkpt lat="48.08658" lon="7.66589">
        <ele>411</ele>
        <time>2010-01-01T01:14:00Z</time>
      </trkpt>
      <trkpt lat="48.08679" lon="7.66628">
        <ele>403</ele>
        <time>2010-01-01T01:14:13Z</time>
      </trkpt>
      <trkpt lat="48.08709" lon="7.66671">
        <ele>398</ele>
        <time>2010-01-01T01:14:30Z</time>
      </trkpt>
      <trkpt lat="48.08745" lon="7.66714">
        <ele>397</ele>
        <time>2010-01-01T01:14:48Z</time>
      </trkpt>
      <trkpt lat="48.08765" lon="7.66733">
        <ele>398</ele>
        <time>2010-01-01T01:14:58Z</time>
      </trkpt>
      <trkpt lat="48.08789" lon="7.66747">
        <ele>399</ele>
        <time>2010-01-01T01:15:08Z</time>
      </trkpt>
      <trkpt lat="48.08842" lon="7.66784">
        <ele>396</ele>
        <time>2010-01-01T01:15:32Z</time>
      </trkpt>
      <trkpt lat="48.08853" lon="7.66809">
        <ele>393</ele>
        <time>2010-01-01T01:15:40Z</time>
      </trkpt>
      <trkpt lat="48.08868" lon="7.66852">
        <ele>385</ele>
        <time>2010-01-01T01:15:52Z</time>
      </trkpt>
      <trkpt lat="48.08881" lon="7.6688">
        <ele>381</ele>
        <time>2010-01-01T01:16:02Z</time>
      </trkpt>
      <trkpt lat="48.08945" lon="7.66973">
        <ele>372</ele>
        <time>2010-01-01T01:16:37Z</time>
      </trkpt>
      <trkpt lat="48.08954" lon="7.6698">
        <ele>369</ele>
        <time>2010-01-01T01:16:41Z</time>
      </trkpt>
      <trkpt lat="48.08979" lon="7.6699">
        <ele>358</ele>
        <time>2010-01-01T01:16:52Z</time>
      </trkpt>
      <trkpt lat="48.09003" lon="7.66992">
        <ele>343</ele>
        <time>2010-01-01T01:17:02Z</time>
      </trkpt>
      <trkpt lat="48.09007" lon="7.66998">
        <ele>342</ele>
        <time>2010-01-01T01:17:04Z</time>
      </trkpt>
      <trkpt lat="48.0901" lon="7.67013">
        <ele>340</ele>
        <time>2010-01-01T01:17:08Z</time>
      </trkpt>
      <trkpt lat="48.09018" lon="7.67037">
        <ele>333</ele>
        <time>2010-01-01T01:17:15Z</time>
      </trkpt>
      <trkpt lat="48.09022" lon="7.67043">
        <ele>330</ele>
        <time>2010-01-01T01:17:17Z</time>
      </trkpt>
      <trkpt lat="48.09037" lon="7.67049">
        <ele>324</ele>
        <time>2010-01-01T01:17:24Z</time>
      </trkpt>
      <trkpt lat="48.09045" lon="7.67046">
        <ele>321</ele>
        <time>2010-01-01T01:17:27Z</time>
      </trkpt>
      <trkpt lat="48.0906" lon="7.67027">
        <ele>316</ele>
        <time>2010-01-01T01:17:35Z</time>
      </trkpt>
      <trkpt lat="48.09069" lon="7.6702">
        <ele>312</ele>
        <time>2010-01-01T01:17:39Z</time>
      </trkpt>
      <trkpt lat="48.09078" lon="7.6702">
        <ele>310</ele>
        <time>2010-01-01T01:17:42Z</time>
      </trkpt>
      <trkpt lat="48.0909" lon="7.67033">
        <ele>309</ele>
        <time>2010-01-01T01:17:48Z</time>
      </trkpt>
      <trkpt lat="48.09097" lon="7.67038">
        <ele>309</ele>
        <time>2010-01-01T01:17:51Z</time>
      </trkpt>
      <trkpt lat="48.09101" lon="7.67038">
        <ele>308</ele>
        <time>2010-01-01T01:17:53Z</time>
      </trkpt>
      <trkpt lat="48.09163" lon="7.67012">
        <ele>289</ele>
        <time>2010-01-01T01:18:19Z</time>
      </trkpt>
      <trkpt lat="48.0919" lon="7.66994">
        <ele>282</ele>
        <time>2010-01-01T01:18:31Z</time>
      </trkpt>
      <trkpt lat="48.09194" lon="7.66985">
        <ele>282</ele>
        <time>2010-01-01T01:18:34Z</time>
      </trkpt>
      <trkpt lat="48.09203" lon="7.66949">
        <ele>284</ele>
        <time>2010-01-01T01:18:44Z</time>
      </trkpt>
      <trkpt lat="48.09206" lon="7.66945">
        <ele>284</ele>
        <time>2010-01-01T01:18:45Z</time>
      </trkpt>
      <trkpt lat="48.09223" lon="7.66945">
        <ele>280</ele>
        <time>2010-01-01T01:18:52Z</time>
      </trkpt>
      <trkpt lat="48.09229" lon="7.66947">
        <ele>280</ele>
        <time>2010-01-01T01:18:55Z</time>
      </trkpt>
      <trkpt lat="48.09244" lon="7.66902">
        <ele>279</ele>
        <time>2010-01-01T01:19:08Z</time>
      </trkpt>
      <trkpt lat="48.09257" lon="7.66869">
        <ele>278</ele>
        <time>2010-01-01T01:19:18Z</time>
      </trkpt>
      <trkpt lat="48.09303" lon="7.66914">
        <ele>273</ele>
        <time>2010-01-01T01:19:40Z</time>
      </trkpt>
      <trkpt lat="48.09302" lon="7.66915">
        <ele>273</ele>
        <time>2010-01-01T01:19:41Z</time>
      </trkpt>
      <trkpt lat="48.09309" lon="7.66919">
        <ele>275</ele>
        <time>2010-01-01T01:19:43Z</time>
      </trkpt>
      <trkpt lat="48.09325" lon="7.66931">
        <ele>280</ele>
        <time>2010-01-01T01:19:51Z</time>
      </trkpt>
      <trkpt lat="48.09328" lon="7.66941">
        <ele>282</ele>
        <time>2010-01-01T01:19:54Z</time>
      </trkpt>
      <trkpt lat="48.0934" lon="7.66915">
        <ele>284</ele>
        <time>2010-01-01T01:20:02Z</time>
      </trkpt>
      <trkpt lat="48.09351" lon="7.66895">
        <ele>285</ele>
        <time>2010-01-01T01:20:09Z</time>
      </trkpt>
      <trkpt lat="48.09375" lon="7.66862">
        <ele>283</ele>
        <time>2010-01-01T01:20:22Z</time>
      </trkpt>
      <trkpt lat="48.09397" lon="7.6684">
        <ele>281</ele>
        <time>2010-01-01T01:20:32Z</time>
      </trkpt>
      <trkpt lat="48.09407" lon="7.66822">
        <ele>279</ele>
        <time>2010-01-01T01:20:39Z</time>
      </trkpt>
      <trkpt lat="48.09423" lon="7.66802">
        <ele>278</ele>
        <time>2010-01-01T01:20:47Z</time>
      </trkpt>
      <trkpt lat="48.0943" lon="7.66783">
        <ele>277</ele>
        <time>2010-01-01T01:20:53Z</time>
      </trkpt>
      <trkpt lat="48.09448" lon="7.66754">
        <ele>278</ele>
        <time>2010-01-01T01:21:04Z</time>
      </trkpt>
      <trkpt lat="48.09454" lon="7.66735">
        <ele>278</ele>
        <time>2010-01-01T01:21:09Z</time>
      </trkpt>
      <trkpt lat="48.09455" lon="7.66731">
        <ele>278</ele>
        <time>2010-01-01T01:21:10Z</time>
      </trkpt>
      <trkpt lat="48.09477" lon="7.66684">
        <ele>276</ele>
        <time>2010-01-01T01:21:26Z</time>
      </trkpt>
      <trkpt lat="48.0949" lon="7.66639">
        <ele>272</ele>
        <time>2010-01-01T01:21:39Z</time>
      </trkpt>
      <trkpt lat="48.09513" lon="7.6657">
        <ele>270</ele>
        <time>2010-01-01T01:21:59Z</time>
      </trkpt>
      <trkpt lat="48.09521" lon="7.66551">
        <ele>268</ele>
        <time>2010-01-01T01:22:06Z</time>
      </trkpt>
      <trkpt lat="48.09543" lon="7.66507">
        <ele>266</ele>
        <time>2010-01-01T01:22:20Z</time>
      </trkpt>
      <trkpt lat="48.09595" lon="7.66452">
        <ele>260</ele>
        <time>2010-01-01T01:22:46Z</time>
      </trkpt>
      <trkpt lat="48.09595" lon="7.6644">
        <ele>259</ele>
        <time>2010-01-01T01:22:49Z</time>
      </trkpt>
      <trkpt lat="48.09605" lon="7.66447">
        <ele>259</ele>
        <time>2010-01-01T01:22:53Z</time>
      </trkpt>
      <trkpt lat="48.09612" lon="7.66448">
        <ele>259</ele>
        <time>2010-01-01T01:22:56Z</time>
      </trkpt>
      <trkpt lat="48.09637" lon="7.66445">
        <ele>260</ele>
        <time>2010-01-01T01:23:06Z</time>
      </trkpt>
      <trkpt lat="48.0964" lon="7.66443">
        <ele>260</ele>
        <time>2010-01-01T01:23:07Z</time>
      </trkpt>
      <trkpt lat="48.0964" lon="7.66432">
        <ele>259</ele>
        <time>2010-01-01T01:23:10Z</time>
      </trkpt>
      <trkpt lat="48.09679" lon="7.66427">
        <ele>261</ele>
        <time>2010-01-01T01:23:26Z</time>
      </trkpt>
      <trkpt lat="48.0969" lon="7.66424">
        <ele>261</ele>
        <time>2010-01-01T01:23:30Z</time>
      </trkpt>
      <trkpt lat="48.09703" lon="7.66425">
        <ele>260</ele>
        <time>2010-01-01T01:23:35Z</time>
      </trkpt>
      <trkpt lat="48.09716" lon="7.6643">
        <ele>260</ele>
        <time>2010-01-01T01:23:41Z</time>
      </trkpt>
      <trkpt lat="48.09727" lon="7.66441">
        <ele>260</ele>
        <time>2010-01-01T01:23:46Z</time>
      </trkpt>
      <trkpt lat="48.09735" lon="7.66456">
        <ele>260</ele>
        <time>2010-01-01T01:23:51Z</time>
      </trkpt>
      <trkpt lat="48.09746" lon="7.66486">
        <ele>262</ele>
        <time>2010-01-01T01:24:00Z</time>
      </trkpt>
      <trkpt lat="48.09753" lon="7.66516">
        <ele>264</ele>
        <time>2010-01-01T01:24:09Z</time>
      </trkpt>
      <trkpt lat="48.0976" lon="7.66565">
        <ele>266</ele>
        <time>2010-01-01T01:24:22Z</time>
      </trkpt>
      <trkpt lat="48.09765" lon="7.66603">
        <ele>266</ele>
        <time>2010-01-01T01:24:33Z</time>
      </trkpt>
      <trkpt lat="48.09766" lon="7.6664">
        <ele>264</ele>
        <time>2010-01-01T01:24:42Z</time>
      </trkpt>
      <trkpt lat="48.0977" lon="7.66667">
        <ele>265</ele>
        <time>2010-01-01T01:24:50Z</time>
      </trkpt>
      <trkpt lat="48.09797" lon="7.66729">
        <ele>270</ele>
        <time>2010-01-01T01:25:10Z</time>
      </trkpt>
      <trkpt lat="48.09818" lon="7.66782">
        <ele>268</ele>
        <time>2010-01-01T01:25:26Z</time>
      </trkpt>
      <trkpt lat="48.09907" lon="7.67078">
        <ele>277</ele>
        <time>2010-01-01T01:26:53Z</time>
      </trkpt>
      <trkpt lat="48.09929" lon="7.6713">
        <ele>276</ele>
        <time>2010-01-01T01:27:09Z</time>
      </trkpt>
      <trkpt lat="48.09944" lon="7.67169">
        <ele>275</ele>
        <time>2010-01-01T01:27:21Z</time>
      </trkpt>
      <trkpt lat="48.09959" lon="7.6722">
        <ele>277</ele>
        <time>2010-01-01T01:27:36Z</time>
      </trkpt>
      <trkpt lat="48.09975" lon="7.67283">
        <ele>280</ele>
        <time>2010-01-01T01:27:54Z</time>
      </trkpt>
      <trkpt lat="48.09988" lon="7.67324">
        <ele>283</ele>
        <time>2010-01-01T01:28:06Z</time>
      </trkpt>
      <trkpt lat="48.09989" lon="7.67325">
        <ele>283</ele>
        <time>2010-01-01T01:28:07Z</time>
      </trkpt>
      <trkpt lat="48.09988" lon="7.67324">
        <ele>283</ele>
        <time>2010-01-01T01:28:07Z</time>
      </trkpt>
      <trkpt lat="48.09994" lon="7.67318">
        <ele>281</ele>
        <time>2010-01-01T01:28:10Z</time>
      </trkpt>
      <trkpt lat="48.10085" lon="7.6725">
        <ele>279</ele>
        <time>2010-01-01T01:28:51Z</time>
      </trkpt>
      <trkpt lat="48.10099" lon="7.67286">
        <ele>283</ele>
        <time>2010-01-01T01:29:02Z</time>
      </trkpt>
      <trkpt lat="48.10103" lon="7.67301">
        <ele>285</ele>
        <time>2010-01-01T01:29:06Z</time>
      </trkpt>
    </trkseg>
  </trk>
</gpx>